8N0 weather

Public forecast

Using degrees Fahrenheit for public forecast. Weather courtesy of forecast.io.

Closest aviation weather report (METAR) to Rockingham County Heliport

Closest report is Rockingham County NC Shiloh Airport, 6.4 nm (11.8 km) WSW. Retrieved 2020/08/09 02:15 UTC (0 seconds ago):

KSIF 090215Z AUTO 00000KT 4SM BR CLR 23/22 A3016 RMK AO2 T02270224

Closest aviation forecast (TAF) to Rockingham County Heliport

Closest forecast is Danville Regional Airport, 20.0 nm (37.1 km) ENE. Retrieved 2020-08-09 00:24 UTC (2 hours ago):

TAF KDAN 082322Z 0900/0924 17005KT 3/4SM +TSRA FEW018CB FM090100 00000KT P6SM SCT035 FM090700 00000KT 2SM BR SCT060 FM091000 20004KT P6SM SCT100